createdAt,value
2023-04-10T00:00:40.705Z,0.72
2023-04-10T00:02:40.771Z,0.72
2023-04-10T00:04:40.775Z,0.89
2023-04-10T00:05:40.662Z,0.72
2023-04-10T00:07:40.660Z,0.89
2023-04-10T00:09:40.654Z,0.89
2023-04-10T00:10:40.647Z,0.89
2023-04-10T00:12:40.642Z,0.89
2023-04-10T00:13:40.640Z,0.89
2023-04-10T00:14:40.636Z,0.89
2023-04-10T00:15:40.651Z,1.06
2023-04-10T00:17:40.705Z,0.89
2023-04-10T00:18:40.641Z,0.44
2023-04-10T00:20:40.646Z,1.33
2023-04-10T00:21:40.671Z,1.33
2023-04-10T00:22:40.629Z,0.89
2023-04-10T00:23:40.650Z,1.33
2023-04-10T00:25:40.635Z,0.89
2023-04-10T00:26:40.628Z,1.06
2023-04-10T00:27:40.647Z,0.89
2023-04-10T00:28:40.655Z,0.44
2023-04-10T00:29:40.660Z,1.06
2023-04-10T00:30:40.640Z,1.17
2023-04-10T00:31:40.677Z,0.89
2023-04-10T00:32:40.659Z,0.89
2023-04-10T00:33:40.639Z,0.89
2023-04-10T00:34:40.670Z,0.89
2023-04-10T00:35:40.693Z,0.89
2023-04-10T00:37:40.666Z,0.89
2023-04-10T00:39:40.644Z,0.44
2023-04-10T00:41:40.656Z,0.61
2023-04-10T00:43:40.663Z,0.44
2023-04-10T00:44:40.645Z,0.17
2023-04-10T00:45:40.662Z,0.28
2023-04-10T00:46:40.642Z,0.44
2023-04-10T00:47:40.679Z,0.44
2023-04-10T00:48:40.648Z,0.44
2023-04-10T00:50:40.642Z,0.17
2023-04-10T00:51:40.636Z,0.28
2023-04-10T00:52:40.660Z,0.44
2023-04-10T00:53:40.675Z,0.44
2023-04-10T00:55:40.643Z,0
2023-04-10T00:56:40.652Z,0.17
2023-04-10T00:57:40.647Z,0.28
2023-04-10T00:59:40.643Z,0.28
2023-04-10T01:00:40.629Z,0.44
2023-04-10T01:01:40.682Z,0.17
2023-04-10T01:02:40.755Z,-0.17
2023-04-10T01:04:40.653Z,-0.17
2023-04-10T01:05:40.659Z,-0.28
2023-04-10T01:06:40.680Z,-0.39
2023-04-10T01:07:40.652Z,-0.28
2023-04-10T01:08:40.646Z,-0.39
2023-04-10T01:09:40.697Z,-0.39
2023-04-10T01:10:40.643Z,-0.56
2023-04-10T01:11:40.654Z,-0.39
2023-04-10T01:12:40.642Z,-0.56
2023-04-10T01:13:40.641Z,-0.56
2023-04-10T01:14:40.650Z,-0.28
2023-04-10T01:15:40.643Z,0
2023-04-10T01:16:40.676Z,0.17
2023-04-10T01:17:40.675Z,0
2023-04-10T01:19:40.653Z,-0.17
2023-04-10T01:21:40.656Z,-0.39
2023-04-10T01:22:40.650Z,-0.17
2023-04-10T01:23:40.651Z,0.17
2023-04-10T01:24:40.651Z,-0.17
2023-04-10T01:25:40.694Z,-0.56
2023-04-10T01:27:40.654Z,-0.56
2023-04-10T01:28:40.675Z,-0.83
2023-04-10T01:30:40.691Z,-1.11
2023-04-10T01:31:40.666Z,-0.39
2023-04-10T01:32:40.714Z,-0.83
2023-04-10T01:34:40.744Z,-1.28
2023-04-10T01:35:40.676Z,-1.06
2023-04-10T01:36:40.655Z,-0.89
2023-04-10T01:37:40.672Z,-0.83
2023-04-10T01:39:40.659Z,-0.67
2023-04-10T01:40:40.669Z,-0.39
2023-04-10T01:41:40.686Z,-0.39
2023-04-10T01:43:40.667Z,-0.83
2023-04-10T01:44:40.651Z,-0.39
2023-04-10T01:45:40.664Z,-0.39
2023-04-10T01:46:40.662Z,-0.56
2023-04-10T01:47:40.695Z,-0.39
2023-04-10T01:48:40.652Z,-0.56
2023-04-10T01:49:40.663Z,-0.56
2023-04-10T01:50:40.646Z,-0.39
2023-04-10T01:51:40.662Z,-0.67
2023-04-10T01:53:40.667Z,-0.39
2023-04-10T01:55:40.660Z,-0.67
2023-04-10T01:56:40.665Z,-0.83
2023-04-10T01:57:40.688Z,-0.39
2023-04-10T01:58:40.650Z,-0.56
2023-04-10T01:59:40.684Z,-0.39
2023-04-10T02:00:40.667Z,0
2023-04-10T02:01:40.715Z,-0.39
2023-04-10T02:02:40.802Z,-0.39
2023-04-10T02:04:40.949Z,-0.39
2023-04-10T02:06:40.665Z,-0.56
2023-04-10T02:08:40.685Z,-0.39
2023-04-10T02:09:40.683Z,-0.56
2023-04-10T02:11:40.680Z,-0.39
2023-04-10T02:12:40.672Z,-0.56
2023-04-10T02:13:40.693Z,-0.56
2023-04-10T02:15:40.690Z,-0.56
2023-04-10T02:16:40.665Z,-0.39
2023-04-10T02:18:40.676Z,-0.83
2023-04-10T02:19:40.669Z,-0.83
2023-04-10T02:20:40.651Z,-0.83
2023-04-10T02:21:40.663Z,-1.28
2023-04-10T02:22:40.679Z,-1.11
2023-04-10T02:24:40.672Z,-1.56
2023-04-10T02:25:40.662Z,-0.83
2023-04-10T02:27:40.660Z,-1
2023-04-10T02:28:40.654Z,-1.44
2023-04-10T02:29:40.694Z,-1.28
2023-04-10T02:31:40.754Z,-1.28
2023-04-10T02:32:40.697Z,-1.44
2023-04-10T02:33:40.656Z,-2
2023-04-10T02:34:40.665Z,-2
2023-04-10T02:35:40.673Z,-2
2023-04-10T02:36:40.669Z,-2.17
2023-04-10T02:37:40.692Z,-1.83
2023-04-10T02:38:40.657Z,-2.28
2023-04-10T02:39:40.669Z,-2
2023-04-10T02:41:40.662Z,-1.56
2023-04-10T02:42:40.670Z,-1.11
2023-04-10T02:44:40.663Z,-1
2023-04-10T02:45:40.692Z,-1.28
2023-04-10T02:46:40.673Z,-1.28
2023-04-10T02:47:40.681Z,-1.28
2023-04-10T02:49:40.674Z,-1.44
2023-04-10T02:51:40.661Z,-1.44
2023-04-10T02:52:40.667Z,-1.44
2023-04-10T02:53:40.669Z,-1.28
2023-04-10T02:55:40.678Z,-1.28
2023-04-10T02:56:40.695Z,-1.28
2023-04-10T02:57:40.659Z,-1.44
2023-04-10T02:58:40.690Z,-1.67
2023-04-10T02:59:40.674Z,-1
2023-04-10T03:00:40.675Z,-1.44
2023-04-10T03:01:40.814Z,-1.28
2023-04-10T03:02:40.794Z,-1.56
2023-04-10T03:03:40.814Z,-1.56
2023-04-10T03:05:40.668Z,-1.44
2023-04-10T03:07:40.690Z,-1.11
2023-04-10T03:08:40.668Z,-1.56
2023-04-10T03:10:40.679Z,-1.28
2023-04-10T03:11:40.686Z,-1.28
2023-04-10T03:12:40.667Z,-1.56
2023-04-10T03:13:40.680Z,-1.67
2023-04-10T03:14:40.685Z,-1.67
2023-04-10T03:15:40.672Z,-1.83
2023-04-10T03:16:40.779Z,-1.67
2023-04-10T03:17:40.943Z,-1.67
2023-04-10T03:18:40.667Z,-1.44
2023-04-10T03:19:40.671Z,-1.56
2023-04-10T03:20:41.110Z,-1.28
2023-04-10T03:21:40.664Z,-1.83
2023-04-10T03:22:40.670Z,-1.44
2023-04-10T03:23:40.688Z,-1.44
2023-04-10T03:24:40.666Z,-1.44
2023-04-10T03:25:40.669Z,-1.67
2023-04-10T03:26:40.669Z,-1.28
2023-04-10T03:27:40.676Z,-1.56
2023-04-10T03:28:40.675Z,-1.44
2023-04-10T03:30:40.674Z,-1.83
2023-04-10T03:31:40.794Z,-1.28
2023-04-10T03:32:40.676Z,-1.67
2023-04-10T03:33:40.727Z,-1.67
2023-04-10T03:35:40.689Z,-1.28
2023-04-10T03:37:40.676Z,-1.56
2023-04-10T03:38:40.703Z,-1.56
2023-04-10T03:39:40.690Z,-1.28
2023-04-10T03:40:40.672Z,-1.28
2023-04-10T03:41:40.680Z,-1.11
2023-04-10T03:42:40.677Z,-1.28
2023-04-10T03:44:40.682Z,-1.67
2023-04-10T03:45:40.685Z,-1.67
2023-04-10T03:46:40.730Z,-1.67
2023-04-10T03:48:40.680Z,-1.44
2023-04-10T03:49:40.709Z,-1.56
2023-04-10T03:50:40.676Z,-1.83
2023-04-10T03:51:40.686Z,-1.67
2023-04-10T03:52:40.665Z,-1.83
2023-04-10T03:53:40.676Z,-2
2023-04-10T03:54:40.684Z,-2
2023-04-10T03:55:40.698Z,-2
2023-04-10T03:58:40.672Z,-1.67
2023-04-10T03:59:40.696Z,-2.17
2023-04-10T04:00:40.661Z,-2.28
2023-04-10T04:01:40.731Z,-2.28
2023-04-10T04:02:40.928Z,-2.44
2023-04-10T04:04:40.738Z,-2.72
2023-04-10T04:05:40.708Z,-2.61
2023-04-10T04:07:40.682Z,-2.61
2023-04-10T04:08:40.679Z,-2.61
2023-04-10T04:09:40.680Z,-2.61
2023-04-10T04:11:40.688Z,-2.28
2023-04-10T04:12:40.682Z,-2.28
2023-04-10T04:13:40.685Z,-1.83
2023-04-10T04:15:40.679Z,-1.67
2023-04-10T04:16:40.703Z,-1.67
2023-04-10T04:18:40.680Z,-2
2023-04-10T04:19:40.681Z,-2.17
2023-04-10T04:20:40.682Z,-2.28
2023-04-10T04:21:40.708Z,-2.17
2023-04-10T04:22:40.673Z,-2.28
2023-04-10T04:23:40.693Z,-2.28
2023-04-10T04:25:40.707Z,-2.44
2023-04-10T04:26:40.686Z,-2.17
2023-04-10T04:27:40.687Z,-2
2023-04-10T04:28:40.698Z,-2.17
2023-04-10T04:30:40.681Z,-2.28
2023-04-10T04:31:40.741Z,-2.17
2023-04-10T04:33:40.691Z,-2.28
2023-04-10T04:34:40.695Z,-2.72
2023-04-10T04:36:40.693Z,-2.28
2023-04-10T04:37:40.711Z,-2.17
2023-04-10T04:39:40.689Z,-2.44
2023-04-10T04:41:40.695Z,-2.28
2023-04-10T04:42:40.694Z,-2.28
2023-04-10T04:43:40.746Z,-2.61
2023-04-10T04:44:40.694Z,-2.28
2023-04-10T04:45:40.718Z,-2.44
2023-04-10T04:46:41.922Z,-3.06
2023-04-10T04:48:40.701Z,-2.28
2023-04-10T04:50:40.698Z,-2.44
2023-04-10T04:51:40.690Z,-2.17
2023-04-10T04:52:40.720Z,-2.44
2023-04-10T04:53:40.753Z,-2.44
2023-04-10T04:55:40.699Z,-2.28
2023-04-10T04:56:40.686Z,-2.28
2023-04-10T04:57:40.695Z,-2.44
2023-04-10T04:58:40.697Z,-2.28
2023-04-10T04:59:40.697Z,-2.61
2023-04-10T05:01:40.813Z,-2.17
2023-04-10T05:02:40.793Z,-2
2023-04-10T05:03:40.778Z,-1.67
2023-04-10T05:05:40.702Z,-1.67
2023-04-10T05:06:40.707Z,-1.83
2023-04-10T05:07:40.680Z,-1.67
2023-04-10T05:08:40.694Z,-2
2023-04-10T05:09:40.730Z,-2
2023-04-10T05:11:40.698Z,-2.17
2023-04-10T05:13:40.695Z,-1.83
2023-04-10T05:14:40.697Z,-1.83
2023-04-10T05:16:40.698Z,-1.67
2023-04-10T05:17:40.725Z,-2
2023-04-10T05:19:40.701Z,-1.67
2023-04-10T05:20:40.678Z,-2.17
2023-04-10T05:21:40.694Z,-2
2023-04-10T05:22:40.687Z,-2
2023-04-10T05:23:40.701Z,-1.83
2023-04-10T05:24:40.689Z,-1.56
2023-04-10T05:25:40.724Z,-1.56
2023-04-10T05:26:40.680Z,-1.56
2023-04-10T05:27:40.704Z,-1.44
2023-04-10T05:28:40.700Z,-1.56
2023-04-10T05:30:40.700Z,-1.67
2023-04-10T05:31:40.701Z,-1.44
2023-04-10T05:33:40.705Z,-1.83
2023-04-10T05:34:40.698Z,-1.28
2023-04-10T05:35:40.716Z,-1.44
2023-04-10T05:37:40.695Z,-0.83
2023-04-10T05:38:40.720Z,-0.83
2023-04-10T05:40:40.720Z,-0.83
2023-04-10T05:41:40.725Z,-1
2023-04-10T05:42:40.704Z,-1
2023-04-10T05:43:40.704Z,-0.67
2023-04-10T05:45:40.708Z,-0.56
2023-04-10T05:47:40.704Z,-0.39
2023-04-10T05:48:40.700Z,-0.28
2023-04-10T05:49:40.705Z,-0.28
2023-04-10T05:50:40.718Z,-0.28
2023-04-10T05:51:40.704Z,-0.28
2023-04-10T05:52:40.701Z,-0.56
2023-04-10T05:54:40.708Z,-0.28
2023-04-10T05:56:40.701Z,-0.39
2023-04-10T05:57:40.742Z,-0.39
2023-04-10T05:59:40.703Z,-0.17
2023-04-10T06:00:40.716Z,0.44
2023-04-10T06:02:40.848Z,3.44
2023-04-10T06:04:40.767Z,5.17
2023-04-10T06:05:40.708Z,5.89
2023-04-10T06:06:40.718Z,6
2023-04-10T06:07:40.708Z,4.72
2023-04-10T06:08:40.702Z,3.83
2023-04-10T06:09:40.737Z,3.33
2023-04-10T06:10:40.717Z,3.44
2023-04-10T06:11:40.716Z,3.83
2023-04-10T06:13:40.730Z,4.17
2023-04-10T06:15:40.760Z,4.56
2023-04-10T06:16:40.707Z,5
2023-04-10T06:18:40.717Z,6.78
2023-04-10T06:19:40.707Z,7.22
2023-04-10T06:20:40.709Z,8.39
2023-04-10T06:21:40.712Z,7.5
2023-04-10T06:23:40.732Z,7.67
2023-04-10T06:24:40.721Z,8.11
2023-04-10T06:25:40.724Z,8.39
2023-04-10T06:26:40.721Z,7.94
2023-04-10T06:27:40.722Z,7.94
2023-04-10T06:28:40.720Z,8.5
2023-04-10T06:29:40.742Z,8.39
2023-04-10T06:31:40.765Z,7.33
2023-04-10T06:32:40.755Z,7.94
2023-04-10T06:33:40.712Z,8.11
2023-04-10T06:34:40.730Z,7.94
2023-04-10T06:36:40.722Z,8.39
2023-04-10T06:37:40.712Z,7.5
2023-04-10T06:38:40.718Z,7.06
2023-04-10T06:39:40.727Z,7.28
2023-04-10T06:40:40.701Z,7.22
2023-04-10T06:41:40.714Z,7.78
2023-04-10T06:42:40.714Z,6.61
2023-04-10T06:43:40.738Z,6.61
2023-04-10T06:44:40.729Z,7.06
2023-04-10T06:45:40.769Z,6.78
2023-04-10T06:46:40.726Z,7.06
2023-04-10T06:47:40.777Z,7.94
2023-04-10T06:48:40.724Z,8.33
2023-04-10T06:50:40.734Z,8.78
2023-04-10T06:52:40.725Z,9.06
2023-04-10T06:53:40.711Z,8.94
2023-04-10T06:54:40.743Z,8.39
2023-04-10T06:55:40.726Z,9.83
2023-04-10T06:56:40.808Z,10.56
2023-04-10T06:57:40.739Z,11.17
2023-04-10T06:59:40.726Z,10.56
2023-04-10T07:00:40.754Z,10.11
2023-04-10T07:01:40.772Z,8.94
2023-04-10T07:02:40.733Z,7.94
2023-04-10T07:03:40.786Z,7.67
2023-04-10T07:04:40.726Z,7.94
2023-04-10T07:06:40.735Z,9.5
2023-04-10T07:07:40.721Z,10.39
2023-04-10T07:08:40.726Z,9.5
2023-04-10T07:10:40.738Z,9.5
2023-04-10T07:11:40.736Z,9.67
2023-04-10T07:13:40.737Z,9.39
2023-04-10T07:15:40.729Z,8.11
2023-04-10T07:16:40.765Z,6.83
2023-04-10T07:17:40.796Z,6.72
2023-04-10T07:18:40.717Z,7
2023-04-10T07:19:40.752Z,6.83
2023-04-10T07:21:40.728Z,6.28
2023-04-10T07:23:40.737Z,6
2023-04-10T07:25:40.723Z,6
2023-04-10T07:26:40.729Z,6
2023-04-10T07:27:40.723Z,5.83
2023-04-10T07:28:40.722Z,5.44
2023-04-10T07:29:40.730Z,5.61
2023-04-10T07:30:40.726Z,5.33
2023-04-10T07:31:40.823Z,5.44
2023-04-10T07:32:40.944Z,5.61
2023-04-10T07:33:40.763Z,5.33
2023-04-10T07:35:40.762Z,5.72
2023-04-10T07:37:40.745Z,6
2023-04-10T07:38:40.737Z,5.72
2023-04-10T07:40:40.725Z,6.39
2023-04-10T07:41:40.747Z,6.39
2023-04-10T07:42:40.728Z,6.11
2023-04-10T07:43:40.735Z,6.56
2023-04-10T07:44:40.753Z,6.56
2023-04-10T07:45:40.791Z,6.56
2023-04-10T07:47:40.815Z,6.72
2023-04-10T07:49:40.755Z,6.11
2023-04-10T07:51:40.744Z,6.28
2023-04-10T07:53:40.742Z,5.44
2023-04-10T07:54:40.751Z,5.17
2023-04-10T07:55:40.763Z,4.44
2023-04-10T07:57:42.175Z,4.89
2023-04-10T07:58:40.739Z,4.72
2023-04-10T07:59:40.746Z,5.33
2023-04-10T08:00:40.765Z,6
2023-04-10T08:01:40.817Z,6.56
2023-04-10T08:02:40.883Z,7
2023-04-10T08:03:40.865Z,7.17
2023-04-10T08:04:40.860Z,7.28
2023-04-10T08:05:40.766Z,7
2023-04-10T08:07:40.745Z,7
2023-04-10T08:08:40.734Z,6.83
2023-04-10T08:09:40.740Z,6.39
2023-04-10T08:10:40.754Z,6.11
2023-04-10T08:12:40.753Z,5.44
2023-04-10T08:13:40.758Z,5.17
2023-04-10T08:14:40.764Z,5.61
2023-04-10T08:16:40.773Z,5.83
2023-04-10T08:17:40.757Z,6.11
2023-04-10T08:18:40.739Z,6.11
2023-04-10T08:19:41.489Z,6.28
2023-04-10T08:21:40.825Z,5.72
2023-04-10T08:23:40.755Z,7.17
2023-04-10T08:24:40.755Z,7.72
2023-04-10T08:26:40.775Z,7.17
2023-04-10T08:28:40.760Z,7.61
2023-04-10T08:29:40.739Z,7.28
2023-04-10T08:30:40.758Z,7.89
2023-04-10T08:31:40.748Z,8.17
2023-04-10T08:32:40.756Z,8.61
2023-04-10T08:33:40.748Z,8.61
2023-04-10T08:34:40.768Z,8.61
2023-04-10T08:36:40.762Z,8.44
2023-04-10T08:37:40.814Z,8.61
2023-04-10T08:38:40.736Z,9
2023-04-10T08:39:40.749Z,9.28
2023-04-10T08:40:40.739Z,9
2023-04-10T08:41:40.748Z,8.67
2023-04-10T08:43:40.740Z,8.61
2023-04-10T08:45:40.747Z,8.44
2023-04-10T08:46:40.802Z,8.67
2023-04-10T08:48:40.737Z,9
2023-04-10T08:49:40.757Z,8.83
2023-04-10T08:50:40.737Z,8.67
2023-04-10T08:51:40.742Z,8.61
2023-04-10T08:52:40.747Z,8.44
2023-04-10T08:53:40.779Z,8.61
2023-04-10T08:55:40.745Z,9
2023-04-10T08:56:40.758Z,9.61
2023-04-10T08:57:43.089Z,9.61
2023-04-10T08:58:40.746Z,9.17
2023-04-10T08:59:40.749Z,9.28
2023-04-10T09:00:40.760Z,9
2023-04-10T09:02:42.513Z,9
2023-04-10T09:03:41.009Z,9.28
2023-04-10T09:04:40.901Z,9.72
2023-04-10T09:05:40.739Z,10.33
2023-04-10T09:06:40.761Z,10.5
2023-04-10T09:07:40.747Z,10
2023-04-10T09:08:40.751Z,9.61
2023-04-10T09:09:40.826Z,10.17
2023-04-10T09:11:40.755Z,10.44
2023-04-10T09:12:40.737Z,10.22
2023-04-10T09:13:40.749Z,9.67
2023-04-10T09:15:40.804Z,9.22
2023-04-10T09:16:40.744Z,8.78
2023-04-10T09:17:40.768Z,8.61
2023-04-10T09:18:40.749Z,9.22
2023-04-10T09:19:40.738Z,9.78
2023-04-10T09:20:40.747Z,10.39
2023-04-10T09:21:40.750Z,11
2023-04-10T09:23:40.747Z,10.56
2023-04-10T09:25:40.764Z,11
2023-04-10T09:27:40.763Z,10.67
2023-04-10T09:28:40.748Z,10.39
2023-04-10T09:29:40.743Z,9.94
2023-04-10T09:30:40.758Z,9.78
2023-04-10T09:31:40.768Z,10.11
2023-04-10T09:32:40.799Z,9.67
2023-04-10T09:33:40.756Z,10.22
2023-04-10T09:35:40.747Z,9.22
2023-04-10T09:36:40.782Z,9.78
2023-04-10T09:37:40.829Z,10.56
2023-04-10T09:38:40.745Z,10.67
2023-04-10T09:39:40.763Z,9.22
2023-04-10T09:40:40.751Z,8.94
2023-04-10T09:41:40.788Z,8.78
2023-04-10T09:43:40.771Z,9.22
2023-04-10T09:44:40.749Z,9.22
2023-04-10T09:45:40.801Z,9.67
2023-04-10T09:46:40.808Z,9.78
2023-04-10T09:47:40.791Z,9.22
2023-04-10T09:48:40.753Z,8.94
2023-04-10T09:50:40.832Z,10.56
2023-04-10T09:51:40.760Z,10.67
2023-04-10T09:52:40.757Z,10.22
2023-04-10T09:54:40.748Z,10.11
2023-04-10T09:55:40.764Z,10.56
2023-04-10T09:56:40.742Z,9.67
2023-04-10T09:57:40.773Z,9.67
2023-04-10T09:59:42.574Z,9.67
2023-04-10T10:00:40.768Z,10.39
2023-04-10T10:01:40.814Z,10.56
2023-04-10T10:02:40.921Z,10.56
2023-04-10T10:03:40.801Z,9.78
2023-04-10T10:05:40.766Z,10.67
2023-04-10T10:06:40.764Z,10.67
2023-04-10T10:07:40.756Z,10.11
2023-04-10T10:08:40.767Z,9.94
2023-04-10T10:10:40.760Z,10.22
2023-04-10T10:11:40.778Z,10.11
2023-04-10T10:12:40.763Z,9.67
2023-04-10T10:13:40.804Z,9.67
2023-04-10T10:15:40.762Z,10.11
2023-04-10T10:17:40.786Z,9.67
2023-04-10T10:19:40.751Z,9.06
2023-04-10T10:20:40.765Z,10.11
2023-04-10T10:21:40.756Z,10.83
2023-04-10T10:22:40.772Z,9.94
2023-04-10T10:23:40.782Z,9.94
2023-04-10T10:24:40.763Z,10.11
2023-04-10T10:25:40.765Z,9.67
2023-04-10T10:26:40.766Z,8.94
2023-04-10T10:27:40.771Z,8.94
2023-04-10T10:28:40.782Z,9.67
2023-04-10T10:29:40.804Z,10.56
2023-04-10T10:30:40.769Z,10.56
2023-04-10T10:31:40.801Z,10.22
2023-04-10T10:32:40.782Z,10.11
2023-04-10T10:33:40.766Z,9.78
2023-04-10T10:34:40.771Z,10.22
2023-04-10T10:35:40.781Z,10.67
2023-04-10T10:36:40.774Z,10.39
2023-04-10T10:37:40.790Z,11.61
2023-04-10T10:38:40.765Z,11.72
2023-04-10T10:39:40.768Z,11.44
2023-04-10T10:40:40.793Z,10.67
2023-04-10T10:42:40.774Z,10.22
2023-04-10T10:43:40.781Z,10.39
2023-04-10T10:44:40.764Z,11.11
2023-04-10T10:45:40.845Z,10.83
2023-04-10T10:47:40.790Z,11.83
2023-04-10T10:49:40.780Z,11.44
2023-04-10T10:50:40.774Z,11.83
2023-04-10T10:52:40.778Z,11.44
2023-04-10T10:53:40.819Z,10.94
2023-04-10T10:55:40.768Z,11.17
2023-04-10T10:56:40.790Z,11.5
2023-04-10T10:57:40.769Z,11.61
2023-04-10T10:58:40.774Z,11.61
2023-04-10T10:59:40.784Z,11.5
2023-04-10T11:00:40.762Z,11.61
2023-04-10T11:01:40.874Z,10.72
2023-04-10T11:02:40.844Z,11.33
2023-04-10T11:03:40.834Z,10.72
2023-04-10T11:04:40.859Z,11.06
2023-04-10T11:06:41.203Z,11.61
2023-04-10T11:07:40.772Z,12
2023-04-10T11:08:40.783Z,10.72
2023-04-10T11:12:40.810Z,11.17
2023-04-10T11:13:40.781Z,11.06
2023-04-10T11:14:40.801Z,12.17
2023-04-10T11:15:40.828Z,12.5
2023-04-10T11:16:40.885Z,12.33
2023-04-10T11:17:40.841Z,12.94
2023-04-10T11:18:40.768Z,11.89
2023-04-10T11:19:40.780Z,11.17
2023-04-10T11:21:40.779Z,11.33
2023-04-10T11:23:40.784Z,11.5
2023-04-10T11:24:40.819Z,12.5
2023-04-10T11:25:40.778Z,12
2023-04-10T11:26:40.803Z,12.78
2023-04-10T11:27:40.788Z,13.67
2023-04-10T11:28:40.791Z,13.56
2023-04-10T11:30:40.796Z,12.78
2023-04-10T11:31:40.807Z,12.5
2023-04-10T11:32:40.808Z,12.17
2023-04-10T11:33:40.800Z,12
2023-04-10T11:35:40.791Z,11.33
2023-04-10T11:37:40.779Z,11.89
2023-04-10T11:38:40.798Z,12
2023-04-10T11:40:40.779Z,12.5
2023-04-10T11:41:40.785Z,12
2023-04-10T11:42:40.804Z,12
2023-04-10T11:43:40.779Z,12.33
2023-04-10T11:45:40.798Z,12.94
2023-04-10T11:46:40.785Z,12.17
2023-04-10T11:47:40.843Z,12.5
2023-04-10T11:48:40.789Z,12.33
2023-04-10T11:49:40.791Z,12.78
2023-04-10T11:51:40.790Z,12.5
2023-04-10T11:53:40.790Z,11.61
2023-04-10T11:54:40.774Z,11.5
2023-04-10T11:55:40.770Z,11.06
2023-04-10T11:56:40.775Z,12
2023-04-10T11:57:40.780Z,11.5
2023-04-10T11:58:40.785Z,11.78
2023-04-10T11:59:40.771Z,11.61
2023-04-10T12:00:40.787Z,12
2023-04-10T12:01:42.897Z,12
2023-04-10T12:02:40.886Z,12.17
2023-04-10T12:03:40.875Z,12.17
2023-04-10T12:04:41.078Z,12
2023-04-10T12:05:40.808Z,11.5
2023-04-10T12:07:40.777Z,11.89
2023-04-10T12:08:40.813Z,11.17
2023-04-10T12:09:40.780Z,11.06
2023-04-10T12:11:40.790Z,12.5
2023-04-10T12:13:40.788Z,12.17
2023-04-10T12:15:40.787Z,12.5
2023-04-10T12:16:40.772Z,12
2023-04-10T12:17:40.805Z,11.89
2023-04-10T12:19:40.796Z,11.61
2023-04-10T12:21:40.824Z,12
2023-04-10T12:22:40.782Z,12.5
2023-04-10T12:23:40.777Z,12.78
2023-04-10T12:24:40.794Z,12.78
2023-04-10T12:25:40.792Z,12.17
2023-04-10T12:26:40.780Z,11.61
2023-04-10T12:27:40.787Z,12
2023-04-10T12:28:40.782Z,12.78
2023-04-10T12:30:40.787Z,12.5
2023-04-10T12:31:40.823Z,12
2023-04-10T12:32:40.800Z,12
2023-04-10T12:33:40.788Z,11.61
2023-04-10T12:34:40.801Z,12.61
2023-04-10T12:35:40.803Z,13.56
2023-04-10T12:36:40.784Z,12.94
2023-04-10T12:37:40.850Z,12.72
2023-04-10T12:39:40.798Z,12.94
2023-04-10T12:40:40.792Z,13.11
2023-04-10T12:41:40.809Z,13
2023-04-10T12:43:40.813Z,13.83
2023-04-10T12:44:40.792Z,13.39
2023-04-10T12:45:40.808Z,13.67
2023-04-10T12:47:40.817Z,13.83
2023-04-10T12:49:40.803Z,13.56
2023-04-10T12:50:40.791Z,12.56
2023-04-10T12:51:40.799Z,12.67
2023-04-10T12:52:40.817Z,12.67
2023-04-10T12:53:40.830Z,13.17
2023-04-10T12:54:40.796Z,13
2023-04-10T12:55:40.810Z,13.56
2023-04-10T12:56:40.818Z,13.72
2023-04-10T12:57:40.798Z,14.06
2023-04-10T12:58:40.799Z,13.44
2023-04-10T13:00:40.831Z,13.72
2023-04-10T13:02:41.136Z,13.56
2023-04-10T13:03:40.884Z,13.56
2023-04-10T13:04:41.033Z,13.17
2023-04-10T13:06:40.815Z,13.56
2023-04-10T13:07:40.818Z,13.56
2023-04-10T13:09:40.837Z,14.94
2023-04-10T13:10:40.801Z,14.33
2023-04-10T13:11:40.805Z,14.5
2023-04-10T13:13:40.813Z,13.89
2023-04-10T13:14:40.810Z,13.72
2023-04-10T13:16:41.029Z,13.56
2023-04-10T13:17:40.857Z,13.44
2023-04-10T13:18:40.815Z,13.44
2023-04-10T13:19:40.796Z,13.56
2023-04-10T13:20:40.852Z,13.72
2023-04-10T13:21:40.810Z,13.72
2023-04-10T13:22:40.810Z,14.5
2023-04-10T13:23:40.809Z,13.56
2023-04-10T13:24:40.816Z,14.17
2023-04-10T13:25:40.846Z,14.06
2023-04-10T13:27:40.805Z,14.61
2023-04-10T13:29:40.872Z,14.61
2023-04-10T13:30:40.803Z,14.94
2023-04-10T13:31:40.862Z,15.11
2023-04-10T13:32:40.843Z,15.5
2023-04-10T13:34:40.827Z,15.33
2023-04-10T13:36:40.953Z,15.22
2023-04-10T13:37:40.813Z,14.83
2023-04-10T13:38:40.806Z,14.83
2023-04-10T13:39:40.809Z,15.33
2023-04-10T13:41:40.834Z,14.5
2023-04-10T13:43:40.838Z,15.11
2023-04-10T13:44:40.817Z,15.22
2023-04-10T13:45:40.820Z,15.33
2023-04-10T13:46:40.876Z,15.83
2023-04-10T13:47:40.896Z,15.83
2023-04-10T13:48:40.972Z,15.94
2023-04-10T13:49:40.830Z,16.56
2023-04-10T13:51:40.824Z,16.56
2023-04-10T13:52:40.832Z,16.28
2023-04-10T13:53:40.813Z,15.67
2023-04-10T13:54:40.849Z,15.94
2023-04-10T13:55:40.810Z,16.11
2023-04-10T13:56:40.825Z,15.94
2023-04-10T13:57:40.848Z,15.83
2023-04-10T13:59:40.832Z,14.5
2023-04-10T14:00:40.893Z,14.17
2023-04-10T14:02:40.925Z,14.94
2023-04-10T14:03:40.896Z,15.11
2023-04-10T14:05:40.819Z,15.83
2023-04-10T14:07:40.824Z,15.33
2023-04-10T14:08:40.813Z,14.83
2023-04-10T14:09:40.836Z,15.33
2023-04-10T14:11:40.821Z,15.33
2023-04-10T14:12:40.823Z,14.5
2023-04-10T14:13:40.838Z,14.94
2023-04-10T14:15:40.816Z,14.83
2023-04-10T14:16:40.870Z,14.83
2023-04-10T14:17:40.900Z,14.94
2023-04-10T14:18:40.807Z,15.67
2023-04-10T14:19:40.829Z,15.94
2023-04-10T14:20:40.835Z,15.94
2023-04-10T14:22:40.818Z,14.94
2023-04-10T14:23:40.816Z,15.5
2023-04-10T14:24:40.842Z,16.11
2023-04-10T14:25:40.827Z,15.11
2023-04-10T14:26:40.826Z,14.61
2023-04-10T14:27:40.839Z,15.11
2023-04-10T14:28:40.834Z,15.83
2023-04-10T14:29:47.581Z,14.5
2023-04-10T14:30:40.819Z,14.06
2023-04-10T14:31:47.039Z,14.33
2023-04-10T14:32:40.909Z,14.5
2023-04-10T14:33:40.826Z,14.5
2023-04-10T14:34:40.829Z,13.89
2023-04-10T14:35:40.840Z,14.06
2023-04-10T14:36:40.828Z,14.17
2023-04-10T14:37:40.816Z,15.22
2023-04-10T14:38:40.819Z,15.83
2023-04-10T14:39:40.845Z,15.83
2023-04-10T14:41:40.835Z,14.83
2023-04-10T14:42:40.829Z,15.33
2023-04-10T14:43:41.441Z,15.83
2023-04-10T14:44:40.840Z,15.94
2023-04-10T14:45:40.860Z,17.67
2023-04-10T14:47:40.889Z,18.67
2023-04-10T14:48:40.944Z,19.33
2023-04-10T14:50:40.856Z,18.94
2023-04-10T14:51:40.828Z,18.33
2023-04-10T14:52:40.821Z,18.5
2023-04-10T14:53:40.825Z,20.22
2023-04-10T14:54:40.840Z,19.61
2023-04-10T14:55:40.833Z,17.67
2023-04-10T14:56:40.820Z,16.89
2023-04-10T14:57:40.851Z,16.89
2023-04-10T14:59:40.834Z,17.22
2023-04-10T15:00:40.864Z,17.44
2023-04-10T15:01:41.002Z,17.5
2023-04-10T15:03:40.983Z,18.5
2023-04-10T15:05:40.841Z,17.5
2023-04-10T15:07:40.852Z,19.11
2023-04-10T15:08:40.848Z,19.33
2023-04-10T15:09:40.831Z,18.83
2023-04-10T15:10:40.841Z,19.61
2023-04-10T15:11:40.850Z,21.56
2023-04-10T15:12:40.838Z,21.06
2023-04-10T15:13:40.832Z,21.56
2023-04-10T15:14:40.848Z,22.06
2023-04-10T15:15:40.835Z,21.39
2023-04-10T15:16:40.898Z,20.11
2023-04-10T15:17:40.895Z,18.67
2023-04-10T15:19:40.842Z,18.83
2023-04-10T15:20:40.844Z,18.83
2023-04-10T15:21:40.834Z,18.83
2023-04-10T15:22:40.853Z,19.5
2023-04-10T15:23:40.854Z,19.61
2023-04-10T15:24:49.704Z,19.33
2023-04-10T15:25:40.834Z,19.94
2023-04-10T15:26:40.849Z,18.83
2023-04-10T15:27:40.846Z,19.5
2023-04-10T15:29:40.843Z,19.61
2023-04-10T15:30:40.887Z,19.11
2023-04-10T15:32:40.900Z,19.5
2023-04-10T15:33:40.872Z,19
2023-04-10T15:35:40.908Z,18.33
2023-04-10T15:37:40.858Z,18.33
2023-04-10T15:38:40.855Z,19
2023-04-10T15:39:40.874Z,19.83
2023-04-10T15:40:40.868Z,20.78
2023-04-10T15:41:40.850Z,21.67
2023-04-10T15:42:40.854Z,21.89
2023-04-10T15:43:40.836Z,22.94
2023-04-10T15:44:40.844Z,21.39
2023-04-10T15:45:40.842Z,22.17
2023-04-10T15:46:40.910Z,21.22
2023-04-10T15:47:40.860Z,21.06
2023-04-10T15:48:40.843Z,20.11
2023-04-10T15:49:40.882Z,19.11
2023-04-10T15:50:40.835Z,19.5
2023-04-10T15:51:40.845Z,20.28
2023-04-10T15:53:40.861Z,19.83
2023-04-10T15:54:40.850Z,19.83
2023-04-10T15:55:40.846Z,20
2023-04-10T15:56:40.863Z,19.83
2023-04-10T15:58:40.855Z,18.33
2023-04-10T15:59:40.849Z,17.89
2023-04-10T16:00:40.853Z,19.11
2023-04-10T16:01:40.905Z,18.83
2023-04-10T16:02:41.075Z,18.83
2023-04-10T16:03:41.025Z,18.33
2023-04-10T16:05:40.879Z,17.39
2023-04-10T16:07:40.866Z,16.94
2023-04-10T16:08:40.848Z,16.44
2023-04-10T16:09:40.875Z,16.44
2023-04-10T16:10:40.886Z,16.44
2023-04-10T16:12:40.872Z,16.44
2023-04-10T16:13:42.994Z,16.33
2023-04-10T16:15:40.910Z,16
2023-04-10T16:16:40.873Z,16
2023-04-10T16:17:40.913Z,15.56
2023-04-10T16:18:40.851Z,15.39
2023-04-10T16:19:40.860Z,15
2023-04-10T16:20:40.869Z,14.67
2023-04-10T16:21:40.878Z,14.22
2023-04-10T16:22:40.852Z,14.22
2023-04-10T16:23:40.866Z,14.56
2023-04-10T16:24:40.854Z,15
2023-04-10T16:25:40.865Z,15
2023-04-10T16:26:40.863Z,14.67
2023-04-10T16:27:40.870Z,14.56